createdAt,value
2022-09-06T00:02:21.372Z,20.04
2022-09-06T00:04:49.938Z,20.10
2022-09-06T00:07:17.959Z,20.20
2022-09-06T00:09:45.830Z,20.29
2022-09-06T00:12:13.697Z,20.18
2022-09-06T00:14:43.108Z,20.15
2022-09-06T00:17:11.539Z,20.03
2022-09-06T00:19:39.527Z,19.94
2022-09-06T00:22:07.958Z,20.02
2022-09-06T00:24:37.144Z,20.06
2022-09-06T00:27:05.479Z,19.88
2022-09-06T00:29:33.981Z,19.93
2022-09-06T00:32:04.469Z,20.07
2022-09-06T00:34:32.695Z,20.10
2022-09-06T00:37:00.618Z,20.03
2022-09-06T00:39:28.779Z,20.00
2022-09-06T00:41:56.652Z,19.74
2022-09-06T00:44:25.015Z,19.82
2022-09-06T00:46:55.340Z,19.81
2022-09-06T00:49:27.584Z,19.89
2022-09-06T00:51:59.966Z,19.88
2022-09-06T00:54:28.769Z,20.01
2022-09-06T00:56:58.552Z,20.10
2022-09-06T00:59:27.243Z,20.19
2022-09-06T01:01:55.740Z,20.16
2022-09-06T01:04:26.581Z,20.00
2022-09-06T01:07:07.150Z,19.89
2022-09-06T01:09:49.273Z,19.91
2022-09-06T01:12:31.118Z,20.01
2022-09-06T01:15:09.334Z,19.80
2022-09-06T01:17:52.173Z,19.71
2022-09-06T01:20:52.588Z,19.80
2022-09-06T01:23:53.251Z,20.05
2022-09-06T01:27:03.540Z,20.39
2022-09-06T01:29:37.816Z,20.90
2022-09-06T01:32:13.380Z,21.40
2022-09-06T01:34:45.339Z,21.50
2022-09-06T01:37:16.822Z,21.69
2022-09-06T01:39:44.778Z,21.74
2022-09-06T01:42:17.806Z,21.61
2022-09-06T01:44:53.236Z,21.53
2022-09-06T01:47:37.589Z,21.41
2022-09-06T01:50:21.008Z,21.15
2022-09-06T01:53:00.743Z,21.06
2022-09-06T01:55:33.713Z,21.10
2022-09-06T01:58:23.332Z,21.02
2022-09-06T02:01:01.375Z,20.78
2022-09-06T02:03:36.374Z,20.71
2022-09-06T02:06:08.907Z,20.96
2022-09-06T02:08:43.342Z,20.97
2022-09-06T02:11:14.418Z,20.78
2022-09-06T02:13:49.489Z,20.74
2022-09-06T02:16:23.031Z,20.70
2022-09-06T02:18:57.521Z,20.74
2022-09-06T02:21:31.249Z,20.63
2022-09-06T02:24:03.018Z,20.37
2022-09-06T02:26:35.705Z,20.37
2022-09-06T02:29:03.826Z,20.34
2022-09-06T02:31:36.049Z,20.30
2022-09-06T02:34:05.375Z,20.34
2022-09-06T02:36:33.884Z,20.21
2022-09-06T02:39:02.091Z,20.13
2022-09-06T02:41:34.386Z,20.18
2022-09-06T02:44:02.359Z,20.18
2022-09-06T02:46:30.865Z,20.17
2022-09-06T02:49:00.278Z,20.18
2022-09-06T02:51:28.263Z,20.14
2022-09-06T02:53:56.836Z,19.98
2022-09-06T02:56:24.910Z,19.94
2022-09-06T02:58:53.030Z,19.81
2022-09-06T03:01:20.983Z,19.66
2022-09-06T03:03:49.024Z,19.49
2022-09-06T03:06:18.409Z,19.15
2022-09-06T03:08:46.346Z,19.04
2022-09-06T03:11:14.501Z,18.88
2022-09-06T03:13:42.471Z,18.81
2022-09-06T03:16:10.505Z,18.74
2022-09-06T03:18:38.381Z,18.59
2022-09-06T03:21:06.958Z,18.54
2022-09-06T03:23:37.418Z,18.48
2022-09-06T03:26:05.365Z,18.45
2022-09-06T03:28:33.421Z,18.59
2022-09-06T03:31:01.463Z,18.69
2022-09-06T03:33:29.466Z,18.62
2022-09-06T03:35:59.434Z,18.64
2022-09-06T03:38:29.233Z,18.62
2022-09-06T03:40:59.188Z,18.61
2022-09-06T03:43:28.587Z,18.39
2022-09-06T03:45:58.184Z,18.26
2022-09-06T03:48:29.174Z,18.25
2022-09-06T03:50:58.661Z,18.29
2022-09-06T03:53:28.750Z,18.27
2022-09-06T03:55:59.206Z,18.28
2022-09-06T03:58:31.550Z,18.34
2022-09-06T04:01:05.636Z,18.26
2022-09-06T04:03:34.368Z,18.31
2022-09-06T04:06:02.273Z,18.38
2022-09-06T04:08:30.558Z,18.36
2022-09-06T04:11:00.618Z,18.31
2022-09-06T04:13:30.313Z,18.30
2022-09-06T04:15:58.814Z,18.22
2022-09-06T04:18:27.347Z,18.19
2022-09-06T04:20:57.008Z,18.22
2022-09-06T04:23:26.206Z,18.18
2022-09-06T04:25:55.917Z,18.14
2022-09-06T04:28:26.591Z,18.07
2022-09-06T04:30:55.452Z,17.96
2022-09-06T04:33:25.824Z,17.87
2022-09-06T04:35:54.763Z,17.77
2022-09-06T04:38:22.764Z,17.68
2022-09-06T04:40:51.236Z,17.63
2022-09-06T04:43:19.389Z,17.67
2022-09-06T04:45:48.938Z,17.62
2022-09-06T04:48:17.119Z,17.41
2022-09-06T04:50:45.126Z,17.33
2022-09-06T04:53:13.607Z,17.42
2022-09-06T04:55:41.565Z,17.47
2022-09-06T04:58:09.705Z,17.47
2022-09-06T05:00:38.905Z,17.53
2022-09-06T05:03:09.843Z,17.61
2022-09-06T05:05:37.710Z,17.67
2022-09-06T05:08:05.580Z,17.69
2022-09-06T05:10:33.535Z,17.73
2022-09-06T05:13:01.439Z,17.67
2022-09-06T05:15:29.473Z,17.67
2022-09-06T05:18:03.975Z,17.68
2022-09-06T05:20:33.718Z,17.80
2022-09-06T05:23:01.750Z,17.73
2022-09-06T05:25:30.025Z,17.70
2022-09-06T05:27:57.974Z,17.77
2022-09-06T05:30:25.923Z,17.86
2022-09-06T05:32:53.943Z,17.92
2022-09-06T05:35:21.922Z,17.96
2022-09-06T05:37:51.291Z,18.09
2022-09-06T05:40:19.472Z,18.10
2022-09-06T05:42:47.395Z,18.16
2022-09-06T05:45:15.658Z,18.15
2022-09-06T05:47:43.779Z,18.17
2022-09-06T05:50:12.586Z,18.18
2022-09-06T05:52:40.720Z,18.22
2022-09-06T05:55:11.097Z,18.25
2022-09-06T05:57:39.109Z,18.31
2022-09-06T06:00:08.180Z,18.31
2022-09-06T06:02:39.870Z,18.28
2022-09-06T06:05:08.730Z,18.36
2022-09-06T06:07:36.734Z,18.43
2022-09-06T06:10:05.514Z,18.47
2022-09-06T06:12:35.392Z,18.51
2022-09-06T06:15:05.371Z,18.47
2022-09-06T06:17:33.362Z,18.46
2022-09-06T06:20:01.860Z,18.53
2022-09-06T06:22:29.840Z,18.62
2022-09-06T06:24:57.837Z,18.65
2022-09-06T06:27:25.734Z,18.63
2022-09-06T06:29:55.366Z,18.58
2022-09-06T06:32:24.690Z,18.63
2022-09-06T06:34:52.834Z,18.80
2022-09-06T06:37:20.814Z,18.91
2022-09-06T06:39:48.833Z,18.92
2022-09-06T06:42:16.800Z,18.86
2022-09-06T06:44:53.866Z,19.13
2022-09-06T06:47:23.367Z,19.25
2022-09-06T06:49:52.059Z,19.30
2022-09-06T06:52:22.060Z,19.25
2022-09-06T06:54:50.325Z,19.31
2022-09-06T06:57:18.745Z,19.33
2022-09-06T06:59:46.766Z,19.42
2022-09-06T07:02:15.780Z,19.35
2022-09-06T07:04:45.371Z,19.43
2022-09-06T07:12:38.056Z,19.61
2022-09-06T07:15:06.997Z,19.72
2022-09-06T07:17:35.726Z,19.76
2022-09-06T07:20:13.766Z,19.79
2022-09-06T07:22:42.715Z,19.84
2022-09-06T07:25:14.425Z,19.93
2022-09-06T07:30:14.859Z,20.15
2022-09-06T07:32:42.845Z,20.40
2022-09-06T07:35:13.901Z,20.61
2022-09-06T07:37:42.233Z,20.71
2022-09-06T07:40:11.726Z,20.89
2022-09-06T07:42:40.015Z,20.97
2022-09-06T07:45:08.903Z,21.00
2022-09-06T07:53:15.538Z,20.86
2022-09-06T07:55:54.334Z,21.04
2022-09-06T07:58:22.851Z,21.07
2022-09-06T08:00:51.543Z,21.12
2022-09-06T08:03:20.084Z,21.06
2022-09-06T08:11:25.065Z,20.85
2022-09-06T08:13:55.849Z,21.03
2022-09-06T08:16:25.468Z,21.10
2022-09-06T08:18:54.902Z,21.13
2022-09-06T08:21:25.443Z,21.21
2022-09-06T08:23:58.044Z,21.34
2022-09-06T08:26:27.407Z,21.43
2022-09-06T08:28:57.351Z,21.45
2022-09-06T08:31:25.683Z,21.40
2022-09-06T08:33:54.951Z,21.45
2022-09-06T08:36:27.406Z,21.55
2022-09-06T08:38:56.071Z,21.63
2022-09-06T08:41:29.420Z,21.58
2022-09-06T08:46:56.786Z,21.70
2022-09-06T08:49:26.777Z,21.78
2022-09-06T08:52:23.965Z,21.88
2022-09-06T08:54:59.979Z,22.00
2022-09-06T08:57:53.792Z,22.25
2022-09-06T09:00:23.147Z,22.34
2022-09-06T09:03:04.747Z,22.35
2022-09-06T09:05:35.604Z,22.35
2022-09-06T09:08:16.073Z,22.42
2022-09-06T09:10:48.448Z,22.44
2022-09-06T09:13:26.917Z,22.66
2022-09-06T09:15:55.150Z,22.78
2022-09-06T09:18:26.720Z,22.92
2022-09-06T09:20:54.842Z,22.97
2022-09-06T09:23:24.186Z,23.21
2022-09-06T09:25:53.870Z,23.18
2022-09-06T09:28:25.081Z,23.32
2022-09-06T09:30:55.519Z,23.30
2022-09-06T09:33:29.899Z,23.32
2022-09-06T09:36:00.064Z,23.53
2022-09-06T09:38:31.714Z,23.58
2022-09-06T09:41:04.026Z,23.61
2022-09-06T09:43:37.195Z,23.49
2022-09-06T09:46:17.426Z,23.37
2022-09-06T09:49:00.893Z,23.51
2022-09-06T09:51:29.595Z,23.76
2022-09-06T09:54:00.625Z,23.93
2022-09-06T09:56:38.578Z,23.98
2022-09-06T09:59:16.918Z,24.08
2022-09-06T10:01:44.870Z,24.43
2022-09-06T10:07:13.287Z,24.44
2022-09-06T10:09:44.534Z,24.68
2022-09-06T10:12:19.402Z,24.69
2022-09-06T10:14:48.690Z,24.63
2022-09-06T10:17:21.805Z,24.71
2022-09-06T10:19:49.883Z,24.89
2022-09-06T10:22:27.411Z,25.15
2022-09-06T10:25:34.625Z,24.65
2022-09-06T10:28:25.684Z,24.86
2022-09-06T10:31:03.571Z,25.11
2022-09-06T10:33:46.864Z,25.13
2022-09-06T10:36:18.929Z,25.15
2022-09-06T10:38:54.087Z,25.27
2022-09-06T10:41:34.235Z,25.48
2022-09-06T10:44:18.182Z,25.65
2022-09-06T10:46:47.059Z,25.55
2022-09-06T10:49:18.735Z,25.78
2022-09-06T10:51:51.821Z,26.14
2022-09-06T10:54:23.131Z,26.38
2022-09-06T10:56:56.190Z,26.32
2022-09-06T10:59:38.065Z,26.13
2022-09-06T11:02:17.781Z,26.58
2022-09-06T11:10:34.473Z,27.05
2022-09-06T11:13:07.371Z,27.11
2022-09-06T11:15:45.167Z,27.04
2022-09-06T11:18:18.722Z,27.02
2022-09-06T11:20:54.699Z,27.34
2022-09-06T11:23:48.260Z,27.25
2022-09-06T11:26:32.082Z,27.61
2022-09-06T11:29:02.616Z,27.77
2022-09-06T11:34:25.122Z,28.00
2022-09-06T11:36:56.493Z,28.36
2022-09-06T11:42:41.964Z,28.90
2022-09-06T11:45:21.684Z,30.05
2022-09-06T11:47:52.735Z,31.23
2022-09-06T11:50:27.872Z,31.80
2022-09-06T11:53:15.998Z,31.51
2022-09-06T11:55:46.019Z,31.61
2022-09-06T11:58:27.610Z,31.40
2022-09-06T12:01:33.358Z,31.44
2022-09-06T12:04:09.713Z,32.26
2022-09-06T12:06:42.148Z,33.01
2022-09-06T12:09:29.648Z,33.55
2022-09-06T12:11:58.751Z,33.40
2022-09-06T12:14:33.570Z,33.82
2022-09-06T12:17:46.626Z,34.67
2022-09-06T12:20:54.572Z,34.35
2022-09-06T12:23:44.350Z,34.04
2022-09-06T12:26:13.447Z,34.66
2022-09-06T12:28:51.671Z,34.51
2022-09-06T12:31:34.965Z,34.38
2022-09-06T12:34:09.779Z,34.55
2022-09-06T12:36:49.765Z,34.16
2022-09-06T12:39:18.079Z,34.02
2022-09-06T12:41:50.296Z,34.02
2022-09-06T12:44:24.349Z,34.08
2022-09-06T12:46:53.089Z,34.39
2022-09-06T12:49:23.514Z,34.36
2022-09-06T12:52:07.457Z,34.14
2022-09-06T12:54:43.977Z,34.48
2022-09-06T12:57:19.355Z,34.34
2022-09-06T12:59:53.898Z,34.31
2022-09-06T13:02:29.675Z,33.93
2022-09-06T13:05:06.408Z,33.44
2022-09-06T13:07:40.004Z,32.78
2022-09-06T13:10:10.475Z,33.10
2022-09-06T13:12:41.405Z,33.26
2022-09-06T13:15:13.851Z,33.50
2022-09-06T13:17:42.144Z,34.05
2022-09-06T13:20:17.399Z,32.64
2022-09-06T13:22:49.287Z,32.66
2022-09-06T13:25:26.146Z,33.67
2022-09-06T13:27:58.217Z,33.47
2022-09-06T13:30:49.966Z,33.41
2022-09-06T13:33:25.819Z,34.02
2022-09-06T13:36:18.313Z,33.90
2022-09-06T13:38:48.289Z,33.99
2022-09-06T13:41:49.261Z,33.79
2022-09-06T13:44:29.604Z,33.87
2022-09-06T13:46:58.225Z,33.64
2022-09-06T13:49:27.147Z,32.72
2022-09-06T13:52:00.285Z,33.25
2022-09-06T13:54:31.324Z,32.85
2022-09-06T13:57:01.868Z,31.94
2022-09-06T13:59:31.762Z,31.82
2022-09-06T14:02:03.568Z,31.34
2022-09-06T14:04:32.571Z,30.42
2022-09-06T14:07:02.669Z,31.09
2022-09-06T14:09:33.355Z,31.85
2022-09-06T14:12:02.217Z,32.73
2022-09-06T14:14:30.560Z,33.39
2022-09-06T14:16:58.740Z,33.33
2022-09-06T14:19:27.110Z,32.87
2022-09-06T14:21:55.807Z,33.01
2022-09-06T14:24:24.409Z,33.17
2022-09-06T14:26:54.596Z,33.16
2022-09-06T14:29:22.601Z,33.00
2022-09-06T14:31:50.766Z,32.81
2022-09-06T14:34:19.261Z,32.67
2022-09-06T14:36:47.566Z,32.82
2022-09-06T14:39:16.331Z,32.54
2022-09-06T14:41:44.961Z,32.54
2022-09-06T14:44:14.890Z,32.47
2022-09-06T14:46:43.294Z,32.38
2022-09-06T14:49:11.926Z,32.00
2022-09-06T14:51:40.945Z,32.01
2022-09-06T14:54:11.490Z,32.13
2022-09-06T14:56:42.028Z,32.03
2022-09-06T14:59:15.774Z,31.79
2022-09-06T15:01:46.841Z,31.92
2022-09-06T15:04:15.984Z,31.69
2022-09-06T15:06:47.347Z,31.46
2022-09-06T15:09:16.951Z,31.24
2022-09-06T15:11:48.268Z,31.05
2022-09-06T15:14:20.823Z,30.84
2022-09-06T15:16:55.568Z,30.91
2022-09-06T15:19:24.832Z,30.37
2022-09-06T15:21:52.942Z,30.01
2022-09-06T15:24:21.268Z,29.82
2022-09-06T15:26:49.725Z,29.51
2022-09-06T15:29:20.389Z,29.40
2022-09-06T15:31:51.798Z,29.35
2022-09-06T15:34:20.671Z,29.08
2022-09-06T15:36:49.827Z,28.94
2022-09-06T15:39:18.373Z,29.15
2022-09-06T15:41:46.762Z,28.97
2022-09-06T15:44:17.007Z,29.00
2022-09-06T15:46:49.961Z,29.06
2022-09-06T15:49:24.373Z,29.00
2022-09-06T15:51:56.417Z,28.90
2022-09-06T15:54:45.150Z,28.48
2022-09-06T15:57:13.837Z,28.02
2022-09-06T15:59:42.466Z,27.92
2022-09-06T16:02:12.032Z,28.02
2022-09-06T16:04:40.566Z,28.18
2022-09-06T16:07:09.679Z,28.14
2022-09-06T16:09:40.499Z,27.88
2022-09-06T16:12:09.126Z,27.64
2022-09-06T16:14:39.028Z,27.64
2022-09-06T16:17:07.136Z,27.56
2022-09-06T16:19:36.686Z,27.59
2022-09-06T16:22:04.805Z,27.51
2022-09-06T16:24:33.419Z,27.56
2022-09-06T16:27:01.897Z,27.55
2022-09-06T16:29:30.325Z,27.50
2022-09-06T16:31:59.953Z,27.56
2022-09-06T16:34:28.570Z,27.42
2022-09-06T16:36:58.535Z,27.26
2022-09-06T16:39:26.962Z,27.22
2022-09-06T16:41:54.967Z,27.13
2022-09-06T16:44:22.920Z,27.05
2022-09-06T16:46:52.986Z,26.96
2022-09-06T16:49:21.316Z,26.94
2022-09-06T16:51:50.926Z,26.83
2022-09-06T16:54:20.954Z,26.86
2022-09-06T16:56:49.098Z,26.76
2022-09-06T16:59:17.310Z,26.66
2022-09-06T17:01:46.107Z,26.56
2022-09-06T17:04:14.987Z,26.42
2022-09-06T17:06:45.887Z,26.27
2022-09-06T17:09:15.906Z,26.21
2022-09-06T17:11:46.818Z,26.20
2022-09-06T17:14:14.837Z,26.46
2022-09-06T17:17:00.677Z,26.37
2022-09-06T17:19:29.817Z,26.20
2022-09-06T17:21:57.938Z,26.21
2022-09-06T17:24:26.735Z,25.94
2022-09-06T17:26:56.268Z,25.69
2022-09-06T17:29:26.586Z,25.61
2022-09-06T17:31:55.079Z,25.40
2022-09-06T17:34:23.116Z,25.29
2022-09-06T17:36:51.372Z,25.37
2022-09-06T17:39:21.575Z,25.37
2022-09-06T17:41:50.667Z,25.28
2022-09-06T17:44:22.273Z,25.25
2022-09-06T17:47:16.849Z,25.40
2022-09-06T17:49:39.285Z,25.04
2022-09-06T17:52:07.746Z,24.94
2022-09-06T17:54:35.882Z,24.85
2022-09-06T17:57:04.019Z,24.85
2022-09-06T17:59:35.652Z,24.73
2022-09-06T18:02:06.990Z,24.44
2022-09-06T18:04:35.407Z,24.23
2022-09-06T18:07:03.692Z,24.29
2022-09-06T18:09:31.784Z,24.29
2022-09-06T18:12:00.028Z,24.22
2022-09-06T18:14:28.532Z,24.06
2022-09-06T18:16:58.149Z,23.90
2022-09-06T18:19:27.451Z,23.77
2022-09-06T18:21:57.055Z,23.89
2022-09-06T18:24:25.677Z,23.88
2022-09-06T18:26:53.829Z,23.87
2022-09-06T18:29:22.166Z,23.74
2022-09-06T18:31:53.562Z,23.53
2022-09-06T18:34:23.321Z,23.29
2022-09-06T18:36:51.979Z,23.38
2022-09-06T18:39:20.598Z,23.38
2022-09-06T18:42:10.548Z,23.43
2022-09-06T18:44:39.413Z,23.28
2022-09-06T18:47:09.034Z,23.07
2022-09-06T18:49:43.793Z,23.06
2022-09-06T18:52:12.488Z,22.93
2022-09-06T18:54:41.619Z,22.95
2022-09-06T18:57:09.719Z,22.96
2022-09-06T18:59:37.929Z,22.96
2022-09-06T19:02:06.132Z,22.86
2022-09-06T19:04:34.225Z,22.70
2022-09-06T19:07:04.658Z,22.70
2022-09-06T19:09:32.664Z,22.77
2022-09-06T19:12:00.648Z,22.78
2022-09-06T19:14:29.061Z,22.78
2022-09-06T19:16:57.410Z,22.84
2022-09-06T19:19:25.615Z,22.76
2022-09-06T19:21:53.747Z,22.73
2022-09-06T19:24:24.544Z,22.77
2022-09-06T19:26:53.484Z,22.72
2022-09-06T19:29:22.244Z,22.64
2022-09-06T19:31:50.669Z,22.56
2022-09-06T19:34:19.420Z,22.66
2022-09-06T19:36:48.798Z,22.44
2022-09-06T19:39:17.637Z,22.11
2022-09-06T19:41:47.808Z,21.98
2022-09-06T19:44:20.721Z,21.95
2022-09-06T19:46:49.455Z,21.70
2022-09-06T19:49:19.089Z,21.82
2022-09-06T19:51:48.925Z,21.95
2022-09-06T19:54:17.797Z,21.88
2022-09-06T19:56:47.705Z,21.90
2022-09-06T19:59:17.763Z,21.99
2022-09-06T20:01:47.192Z,21.91
2022-09-06T20:04:15.700Z,21.66
2022-09-06T20:06:43.955Z,21.41
2022-09-06T20:09:13.482Z,21.43
2022-09-06T20:11:42.893Z,21.67
2022-09-06T20:14:13.173Z,21.58
2022-09-06T20:16:42.591Z,21.68
2022-09-06T20:19:12.291Z,21.56
2022-09-06T20:21:40.391Z,21.43
2022-09-06T20:24:08.747Z,21.34
2022-09-06T20:26:37.734Z,21.42
2022-09-06T20:29:06.654Z,21.36
2022-09-06T20:31:37.906Z,21.13
2022-09-06T20:34:07.409Z,21.16
2022-09-06T20:36:35.606Z,21.06
2022-09-06T20:39:03.619Z,21.18
2022-09-06T20:41:32.115Z,21.35
2022-09-06T20:44:01.312Z,21.35
2022-09-06T20:46:31.155Z,21.15
2022-09-06T20:49:04.332Z,20.91
2022-09-06T20:51:34.173Z,20.74
2022-09-06T20:54:03.753Z,20.69
2022-09-06T20:56:34.207Z,20.71
2022-09-06T20:59:04.129Z,20.37
2022-09-06T21:01:34.949Z,20.09
2022-09-06T21:04:07.974Z,20.08
2022-09-06T21:06:37.696Z,20.31
2022-09-06T21:09:08.213Z,20.26
2022-09-06T21:11:36.576Z,20.06
2022-09-06T21:14:05.234Z,20.05
2022-09-06T21:16:33.890Z,20.22
2022-09-06T21:19:04.293Z,20.21
2022-09-06T21:21:35.684Z,19.76
2022-09-06T21:24:05.606Z,19.75
2022-09-06T21:26:34.381Z,19.80
2022-09-06T21:29:03.517Z,19.61
2022-09-06T21:31:32.829Z,19.41
2022-09-06T21:34:03.796Z,19.52
2022-09-06T21:36:36.031Z,19.63
2022-09-06T21:39:09.445Z,19.64
2022-09-06T21:41:38.673Z,19.63
2022-09-06T21:44:08.272Z,19.73
2022-09-06T21:46:39.573Z,19.86
2022-09-06T21:49:09.715Z,19.93
2022-09-06T21:51:39.729Z,20.01
2022-09-06T21:54:08.585Z,20.09
2022-09-06T21:56:38.163Z,20.24
2022-09-06T21:59:07.165Z,20.17
2022-09-06T22:01:37.078Z,19.89
2022-09-06T22:04:06.206Z,19.84
2022-09-06T22:06:35.728Z,19.73
2022-09-06T22:09:07.673Z,19.28
2022-09-06T22:11:36.399Z,19.23
2022-09-06T22:14:07.469Z,19.25
2022-09-06T22:16:37.402Z,19.46
2022-09-06T22:19:06.338Z,19.58
2022-09-06T22:21:34.742Z,19.72
2022-09-06T22:24:06.285Z,19.77
2022-09-06T22:26:36.579Z,19.80
2022-09-06T22:29:06.810Z,19.87
2022-09-06T22:31:37.419Z,19.75
2022-09-06T22:34:05.651Z,19.46
2022-09-06T22:36:34.045Z,19.21
2022-09-06T22:39:02.125Z,19.04
2022-09-06T22:41:33.904Z,19.29
2022-09-06T22:44:02.854Z,19.55
2022-09-06T22:46:31.431Z,19.83
2022-09-06T22:49:00.177Z,20.12
2022-09-06T22:51:28.219Z,20.21
2022-09-06T22:53:56.235Z,20.29
2022-09-06T22:56:24.757Z,20.25
2022-09-06T22:58:54.470Z,20.28
2022-09-06T23:01:22.537Z,19.94
2022-09-06T23:03:50.659Z,19.81
2022-09-06T23:06:19.336Z,19.86
2022-09-06T23:08:47.777Z,19.72
2022-09-06T23:11:17.699Z,19.65
2022-09-06T23:13:47.114Z,19.53
2022-09-06T23:16:18.659Z,19.53
2022-09-06T23:18:47.458Z,19.52
2022-09-06T23:21:18.013Z,19.48
2022-09-06T23:23:46.934Z,19.38
2022-09-06T23:26:17.368Z,19.42
2022-09-06T23:28:46.054Z,19.50
2022-09-06T23:31:16.865Z,19.44
2022-09-06T23:33:45.266Z,19.42
2022-09-06T23:36:14.709Z,19.45
2022-09-06T23:38:43.995Z,19.31
2022-09-06T23:41:13.302Z,19.54
2022-09-06T23:43:42.909Z,19.66
2022-09-06T23:46:12.282Z,19.66
2022-09-06T23:48:42.882Z,19.75
2022-09-06T23:51:11.409Z,19.88
2022-09-06T23:53:39.915Z,19.92
2022-09-06T23:56:08.618Z,19.84
2022-09-06T23:58:37.475Z,20.01
